Time;durP1;ratioP1;P1;durP2;ratioP2;P2;SDS_P1;SDS_P2;PMS_P1;PMS_P2;Temp;Humidity;BMP_temperature;BMP_pressure;BME280_temperature;BME280_humidity;BME280_pressure;Samples;Min_cycle;Max_cycle;Signal;HPM_P1;HPM_P2
2022/10/25 00:00:20;;;;;;;1.80;0.65;;;;;;;12.81;100.00;99773.91;5032550;28;20026;-84
2022/10/25 00:02:45;;;;;;;3.77;1.30;;;;;;;12.83;100.00;99770.81;5032799;28;20037;-82
2022/10/25 00:05:13;;;;;;;;;;;;;;;12.82;100.00;99769.25;5015506;28;20477;-83
2022/10/25 00:07:38;;;;;;;8.45;1.10;;;;;;;12.84;100.00;99773.19;5032875;28;19974;-81
2022/10/25 00:10:04;;;;;;;4.72;0.85;;;;;;;12.83;100.00;99770.81;5014834;28;20474;-82
2022/10/25 00:12:29;;;;;;;5.03;0.93;;;;;;;12.81;100.00;99762.97;5032693;28;20088;-82
2022/10/25 00:14:55;;;;;;;3.20;0.90;;;;;;;12.81;100.00;99765.72;5014661;28;20036;-83
2022/10/25 00:17:20;;;;;;;4.13;0.77;;;;;;;12.81;100.00;99771.19;5014547;28;20486;-82
2022/10/25 00:19:45;;;;;;;;;;;;;;;12.80;100.00;99772.34;5015087;28;20394;-84
2022/10/25 00:22:12;;;;;;;5.47;1.15;;;;;;;12.75;100.00;99775.31;5032572;28;19917;-84
2022/10/25 00:24:38;;;;;;;2.15;0.70;;;;;;;12.73;100.00;99777.63;5014616;28;20084;-83
2022/10/25 00:27:04;;;;;;;3.53;0.80;;;;;;;12.73;100.00;99771.38;5014241;28;20029;-81
2022/10/25 00:29:31;;;;;;;2.75;0.93;;;;;;;12.75;100.00;99780.78;5032797;28;20029;-82
2022/10/25 00:31:57;;;;;;;4.97;0.93;;;;;;;12.76;100.00;99771.44;5032526;28;20093;-81
2022/10/25 00:34:23;;;;;;;4.97;1.02;;;;;;;12.80;100.00;99777.00;5014115;28;20137;-81
2022/10/25 00:36:48;;;;;;;2.67;0.70;;;;;;;12.81;100.00;99778.59;5014074;28;20033;-83
2022/10/25 00:39:13;;;;;;;3.92;0.80;;;;;;;12.81;100.00;99773.91;5031906;28;20129;-81
2022/10/25 00:41:39;;;;;;;4.10;0.77;;;;;;;12.83;100.00;99777.06;5031817;28;20487;-81
2022/10/25 00:44:37;;;;;;;3.88;0.82;;;;;;;12.84;100.00;99775.94;5014561;28;20029;-82
2022/10/25 00:47:05;;;;;;;;;;;;;;;12.82;100.00;99778.22;5033068;28;20033;-83
2022/10/25 00:49:32;;;;;;;3.50;0.80;;;;;;;12.82;100.00;99780.16;5032411;28;19940;-83
2022/10/25 00:52:01;;;;;;;2.08;0.80;;;;;;;12.81;100.00;99784.84;5014056;28;20116;-83
2022/10/25 00:54:34;;;;;;;3.38;0.98;;;;;;;12.85;100.00;99776.72;5032411;28;20028;-81
2022/10/25 00:57:10;;;;;;;3.55;1.10;;;;;;;12.85;100.00;99785.69;5032629;28;20025;-82
2022/10/25 00:59:37;;;;;;;4.95;1.13;;;;;;;12.86;100.00;99775.56;5032186;28;20063;-83
2022/10/25 01:02:03;;;;;;;5.35;0.68;;;;;;;12.84;100.00;99775.94;5034217;28;20048;-81
2022/10/25 01:04:31;;;;;;;3.30;0.80;;;;;;;12.84;100.00;99786.06;5032250;28;20025;-83
2022/10/25 01:07:01;;;;;;;6.57;0.77;;;;;;;12.82;100.00;99805.56;5014283;28;20095;-83
2022/10/25 01:09:30;;;;;;;3.03;1.00;;;;;;;12.79;100.00;99803.53;5032070;28;20086;-82
2022/10/25 01:11:56;;;;;;;2.58;0.73;;;;;;;12.79;100.00;99798.06;5014538;28;20025;-82
2022/10/25 01:14:22;;;;;;;5.07;0.98;;;;;;;12.80;100.00;99794.19;5032207;28;20078;-82
2022/10/25 01:17:08;;;;;;;3.22;0.82;;;;;;;12.82;100.00;99796.56;5032519;28;20044;-84
2022/10/25 01:20:11;;;;;;;4.65;0.93;;;;;;;12.83;100.00;99803.59;5032636;28;20120;-82
2022/10/25 01:23:02;;;;;;;4.90;0.88;;;;;;;12.83;100.00;99809.88;5014488;28;20025;-81
2022/10/25 01:25:54;;;;;;;5.32;0.73;;;;;;;12.85;100.00;99807.56;5023622;28;20068;-81
2022/10/25 01:29:04;;;;;;;6.25;0.70;;;;;;;12.88;100.00;99801.38;5032327;28;20112;-82
2022/10/25 01:31:47;;;;;;;1.85;0.70;;;;;;;12.88;100.00;99817.78;5032267;28;20053;-81
2022/10/25 01:34:15;;;;;;;3.78;1.65;;;;;;;12.86;100.00;99817.34;5031862;28;20033;-82
2022/10/25 01:36:53;;;;;;;6.53;1.02;;;;;;;12.87;100.00;99816.19;5032124;28;20049;-81
2022/10/25 01:39:21;;;;;;;1.02;0.52;;;;;;;12.88;100.00;99817.78;5014422;28;20499;-81
2022/10/25 01:41:55;;;;;;;7.40;0.93;;;;;;;12.89;100.00;99816.63;5031915;28;20021;-84
2022/10/25 01:45:01;;;;;;;9.68;1.60;;;;;;;12.90;100.00;99820.16;5031556;28;20442;-83
2022/10/25 01:47:37;;;;;;;6.35;0.98;;;;;;;12.87;100.00;99827.13;4987512;28;20257;-83
2022/10/25 01:50:07;;;;;;;4.53;1.05;;;;;;;12.86;100.00;99824.75;5017416;28;20486;-82
2022/10/25 01:52:34;;;;;;;3.80;0.93;;;;;;;12.88;100.00;99823.22;5017317;28;20030;-82
2022/10/25 01:55:01;;;;;;;4.15;0.80;;;;;;;12.86;100.00;99822.00;5035379;28;20033;-83
2022/10/25 01:57:57;;;;;;;2.50;0.80;;;;;;;12.86;100.00;99824.75;5034917;28;20033;-83
2022/10/25 02:00:24;;;;;;;5.80;2.05;;;;;;;12.86;100.00;99817.34;5035206;28;20030;-82
2022/10/25 02:02:57;;;;;;;1.35;0.52;;;;;;;12.87;100.00;99816.19;5035258;28;20033;-83
2022/10/25 02:05:32;;;;;;;2.25;0.70;;;;;;;12.89;100.00;99832.22;5035079;28;20033;-83
2022/10/25 02:08:06;;;;;;;3.60;0.85;;;;;;;12.86;100.00;99817.34;5034798;28;20083;-83
2022/10/25 02:11:05;;;;;;;3.50;0.98;;;;;;;12.85;100.00;99823.16;5035189;28;20025;-83
2022/10/25 02:13:55;;;;;;;2.83;0.65;;;;;;;12.86;100.00;99835.69;5016581;28;20371;-83
2022/10/25 02:16:31;;;;;;;1.77;0.80;;;;;;;12.86;100.00;99830.22;5034628;28;20026;-82
2022/10/25 02:19:02;;;;;;;5.70;1.00;;;;;;;12.82;100.00;99829.34;5034606;28;20083;-83
2022/10/25 02:21:31;;;;;;;2.22;0.73;;;;;;;12.81;100.00;99827.75;5016719;28;20129;-82
2022/10/25 02:24:04;;;;;;;2.13;0.68;;;;;;;12.79;100.00;99830.06;5034769;28;20021;-82
2022/10/25 02:26:30;;;;;;;3.45;1.10;;;;;;;12.76;100.00;99826.06;5001288;28;20502;-83
2022/10/25 02:28:57;;;;;;;;;;;;;;;12.82;100.00;99838.34;5017165;28;20029;-84
2022/10/25 02:31:23;;;;;;;4.53;1.02;;;;;;;12.78;100.00;99839.41;5016576;28;19913;-83
2022/10/25 02:33:49;;;;;;;5.43;1.10;;;;;;;12.78;100.00;99829.28;5016625;28;20036;-83
2022/10/25 02:36:27;;;;;;;1.90;1.10;;;;;;;12.82;100.00;99841.06;5034462;28;20021;-83
2022/10/25 02:38:53;;;;;;;3.63;0.80;;;;;;;12.79;100.00;99843.72;5000402;28;20041;-83
2022/10/25 02:41:19;;;;;;;;;;;;;;;12.88;100.00;99839.63;5034644;28;20376;-82
2022/10/25 02:43:46;;;;;;;5.57;1.23;;;;;;;12.82;100.00;99834.81;5034628;28;20012;-83
2022/10/25 02:46:15;;;;;;;1.95;0.73;;;;;;;12.80;100.00;99832.44;5016489;28;20068;-83
2022/10/25 02:48:43;;;;;;;4.28;0.80;;;;;;;12.82;100.00;99845.75;5034168;28;20030;-83
2022/10/25 02:51:11;;;;;;;2.08;0.90;;;;;;;12.83;100.00;99842.66;5016540;28;20072;-82
2022/10/25 02:53:36;;;;;;;2.90;0.70;;;;;;;12.79;100.00;99841.78;5016710;28;20087;-84
2022/10/25 02:56:04;;;;;;;;;;;;;;;12.76;100.00;99837.00;5034265;28;20035;-84
2022/10/25 02:58:31;;;;;;;5.75;0.95;;;;;;;12.75;100.00;99840.88;5033377;28;19917;-85
2022/10/25 03:00:58;;;;;;;3.00;0.70;;;;;;;12.76;100.00;99842.47;5015911;28;20029;-85
2022/10/25 03:03:23;;;;;;;5.63;0.80;;;;;;;12.76;100.00;99850.66;5015909;28;20482;-84
2022/10/25 03:05:48;;;;;;;2.15;0.70;;;;;;;12.75;100.00;99849.09;5034102;28;20028;-84
2022/10/25 03:08:14;;;;;;;3.00;0.70;;;;;;;12.74;100.00;99849.44;5033523;28;20114;-86
2022/10/25 03:10:40;;;;;;;7.13;1.05;;;;;;;12.72;100.00;99844.34;5033539;28;20466;-85
2022/10/25 03:13:05;;;;;;;2.33;1.00;;;;;;;12.75;100.00;99854.56;5033714;28;20535;-85
2022/10/25 03:15:31;;;;;;;4.50;0.80;;;;;;;12.74;100.00;99855.69;4999562;28;20444;-84
2022/10/25 03:17:58;;;;;;;4.03;0.80;;;;;;;12.75;100.00;99862.75;5000578;28;20269;-85
2022/10/25 03:20:27;;;;;;;4.75;1.00;;;;;;;12.76;100.00;99852.59;5033836;28;20032;-84
2022/10/25 03:22:52;;;;;;;4.40;0.88;;;;;;;12.75;100.00;99860.00;5033530;28;20056;-85
2022/10/25 03:25:17;;;;;;;6.00;1.17;;;;;;;12.75;100.00;99862.75;5033452;28;20474;-85
2022/10/25 03:27:43;;;;;;;3.95;1.08;;;;;;;12.77;100.00;99871.41;5033646;28;20310;-82
2022/10/25 03:30:08;;;;;;;2.57;0.90;;;;;;;12.74;100.00;99866.63;5033224;28;20394;-86
2022/10/25 03:32:34;;;;;;;5.20;1.45;;;;;;;12.79;100.00;99863.66;5033141;28;20276;-83
2022/10/25 03:34:59;;;;;;;8.80;1.80;;;;;;;12.76;100.00;99869.00;5033354;28;20033;-83
2022/10/25 03:37:25;;;;;;;5.03;1.10;;;;;;;12.77;100.00;99863.22;5032801;28;20112;-83
2022/10/25 03:39:50;;;;;;;4.88;1.13;;;;;;;12.81;100.00;99871.47;5033140;28;20359;-82
2022/10/25 03:42:15;;;;;;;;;;;;;;;12.78;100.00;99870.25;5033250;28;20037;-83
2022/10/25 03:44:40;;;;;;;1.47;0.53;;;;;;;12.78;100.00;99881.19;5033146;28;19913;-84
2022/10/25 03:47:06;;;;;;;;;;;;;;;12.80;100.00;99870.69;5015745;28;20022;-84
2022/10/25 03:49:31;;;;;;;2.28;0.80;;;;;;;12.84;100.00;99877.03;5015158;28;20324;-83
2022/10/25 03:51:56;;;;;;;;;;;;;;;12.81;100.00;99879.69;5015571;28;20032;-84
2022/10/25 03:54:22;;;;;;;5.30;0.70;;;;;;;12.70;100.00;99876.69;5032839;28;19909;-83
2022/10/25 03:56:47;;;;;;;4.80;1.05;;;;;;;12.60;100.00;99878.03;5032572;28;20279;-83
2022/10/25 03:59:13;;;;;;;1.98;1.05;;;;;;;12.57;100.00;99880.66;5014856;28;20498;-83
2022/10/25 04:01:38;;;;;;;7.20;1.10;;;;;;;12.57;100.00;99877.94;5032672;28;20028;-84
2022/10/25 04:04:03;;;;;;;3.07;0.90;;;;;;;12.54;100.00;99882.16;5032806;28;20387;-88
2022/10/25 04:06:28;;;;;;;;;;;;;;;12.51;100.00;99873.88;5015921;28;20031;-89
2022/10/25 04:08:54;;;;;;;2.77;0.87;;;;;;;12.49;100.00;99882.44;5032823;28;20283;-87
2022/10/25 04:11:19;;;;;;;;;;;;;;;12.49;100.00;99887.09;4999198;28;20041;-84
2022/10/25 04:13:44;;;;;;;3.28;0.80;;;;;;;12.51;100.00;99890.28;5015020;28;20362;-84
2022/10/25 04:16:10;;;;;;;3.35;0.85;;;;;;;12.51;100.00;99893.00;5032136;28;20057;-86
2022/10/25 04:18:38;;;;;;;;;;;;;;;12.51;100.00;99893.78;5033004;28;20041;-84
2022/10/25 04:21:03;;;;;;;5.43;1.17;;;;;;;12.53;100.00;99893.44;5014760;28;20018;-84
2022/10/25 04:23:30;;;;;;;2.58;1.10;;;;;;;12.51;100.00;99902.00;5032181;28;20029;-86
2022/10/25 04:25:57;;;;;;;2.53;1.08;;;;;;;12.50;100.00;99897.66;5032390;28;20041;-84
2022/10/25 04:28:23;;;;;;;3.17;1.38;;;;;;;12.55;100.00;99904.78;5014725;28;20032;-83
2022/10/25 04:30:48;;;;;;;;;;;;;;;12.55;100.00;99908.31;5015524;28;20021;-86
2022/10/25 04:33:13;;;;;;;2.35;0.60;;;;;;;12.54;100.00;99906.75;5032642;28;19909;-84
2022/10/25 04:35:39;;;;;;;3.33;1.05;;;;;;;12.58;100.00;99917.75;5014251;28;20382;-85
2022/10/25 04:38:04;;;;;;;2.08;0.95;;;;;;;12.57;100.00;99910.69;5032172;28;20038;-82
2022/10/25 04:40:29;;;;;;;6.50;1.73;;;;;;;12.62;100.00;99905.78;5031970;28;20128;-83
2022/10/25 04:42:55;;;;;;;4.32;1.00;;;;;;;12.61;100.00;99911.59;5031102;28;20296;-84
2022/10/25 04:45:21;;;;;;;5.82;0.80;;;;;;;12.61;100.00;99922.53;5032261;28;20386;-84
2022/10/25 04:47:46;;;;;;;;;;;;;;;12.57;100.00;99916.94;4998850;28;20042;-87
2022/10/25 04:50:11;;;;;;;2.22;0.77;;;;;;;12.57;100.00;99927.09;5032260;28;19945;-83
2022/10/25 04:52:37;;;;;;;3.60;0.82;;;;;;;12.60;100.00;99916.28;4998065;28;20029;-84
2022/10/25 04:55:02;;;;;;;;;;;;;;;12.57;100.00;99927.09;5014678;28;20090;-86
2022/10/25 04:57:28;;;;;;;4.30;1.05;;;;;;;12.58;100.00;99928.66;5014063;28;20408;-87
2022/10/25 04:59:55;;;;;;;2.53;0.88;;;;;;;12.59;100.00;99925.59;5014219;28;20405;-85
2022/10/25 05:02:21;;;;;;;3.30;1.02;;;;;;;12.61;100.00;99928.00;5032158;28;20117;-85
2022/10/25 05:04:46;;;;;;;4.03;1.27;;;;;;;12.60;100.00;99927.19;5014870;28;20056;-85
2022/10/25 05:07:12;;;;;;;6.13;1.33;;;;;;;12.59;100.00;99927.53;5014186;28;20432;-84
2022/10/25 05:09:37;;;;;;;5.57;1.02;;;;;;;12.60;100.00;99926.41;5031910;28;20764;-83
2022/10/25 05:12:03;;;;;;;2.90;0.90;;;;;;;12.59;100.00;99924.78;5031621;28;20083;-82
2022/10/25 05:14:28;;;;;;;4.75;1.40;;;;;;;12.64;100.00;99930.00;5031748;28;20030;-84
2022/10/25 05:16:54;;;;;;;2.83;1.20;;;;;;;12.59;100.00;99920.13;5014121;28;20474;-85
2022/10/25 05:19:19;;;;;;;2.67;0.95;;;;;;;12.54;100.00;99925.84;5014333;28;20053;-85
2022/10/25 05:21:44;;;;;;;3.22;1.00;;;;;;;12.54;100.00;99927.78;5033421;28;20037;-86
2022/10/25 05:24:09;;;;;;;6.50;1.30;;;;;;;12.52;100.00;99933.63;5035721;28;20382;-85
2022/10/25 05:26:35;;;;;;;;;;;;;;;12.54;100.00;99933.25;5036531;28;20025;-85
2022/10/25 05:29:00;;;;;;;11.93;4.27;;;;;;;12.52;100.00;99941.81;5036472;28;19920;-87
2022/10/25 05:31:27;;;;;;;;;;;;;;;12.55;100.00;99951.22;5040072;28;20026;-88
2022/10/25 05:33:56;;;;;;;4.22;1.23;;;;;;;12.53;100.00;99950.78;5039154;28;20008;-87
2022/10/25 05:36:22;;;;;;;4.07;1.23;;;;;;;12.50;100.00;99951.50;5038007;28;20033;-85
2022/10/25 05:38:47;;;;;;;;;;;;;;;12.52;100.00;99958.19;5038034;28;20025;-85
2022/10/25 05:41:15;;;;;;;4.90;0.93;;;;;;;12.49;100.00;99958.09;5019708;28;19967;-86
2022/10/25 05:43:42;;;;;;;4.82;1.60;;;;;;;12.48;100.00;99962.78;5019894;28;20037;-85
2022/10/25 05:46:11;;;;;;;7.00;1.27;;;;;;;12.48;100.00;99951.84;5036111;28;20029;-86
2022/10/25 05:48:37;;;;;;;4.72;1.10;;;;;;;12.49;100.00;99963.56;5020042;28;20030;-87
2022/10/25 05:51:14;;;;;;;8.50;1.92;;;;;;;12.55;100.00;99975.81;5019580;28;20041;-87
2022/10/25 05:53:44;;;;;;;2.25;1.02;;;;;;;12.57;100.00;99965.31;5038187;28;20022;-87
2022/10/25 05:56:11;;;;;;;8.05;2.25;;;;;;;12.60;100.00;99970.91;5020352;28;20041;-87
2022/10/25 05:58:37;;;;;;;4.30;1.27;;;;;;;12.57;100.00;99978.97;5003928;28;20125;-85
2022/10/25 06:01:03;;;;;;;;;;;;;;;12.64;100.00;99979.19;5038069;28;20037;-87
2022/10/25 06:03:28;;;;;;;4.85;1.15;;;;;;;12.62;100.00;99985.00;5037995;28;20389;-86
2022/10/25 06:05:53;;;;;;;;;;;;;;;12.61;100.00;99982.63;5037471;28;20213;-86
2022/10/25 06:08:18;;;;;;;4.85;1.08;;;;;;;12.59;100.00;99987.59;5019229;28;20350;-87
2022/10/25 06:10:44;;;;;;;4.68;1.25;;;;;;;12.58;100.00;99988.75;5037391;28;20029;-86
2022/10/25 06:13:09;;;;;;;;;;;;;;;12.67;100.00;99994.06;5036771;28;20076;-85
2022/10/25 06:15:37;;;;;;;5.25;1.20;;;;;;;12.64;100.00;99992.84;5018640;28;20284;-85
2022/10/25 06:18:03;;;;;;;6.72;1.42;;;;;;;12.61;100.00;99988.88;5036030;28;20363;-86
2022/10/25 06:20:28;;;;;;;9.30;1.45;;;;;;;12.64;100.00;99993.63;5036714;28;20486;-85
2022/10/25 06:22:54;;;;;;;;;;;;;;;12.64;100.00;100004.56;5036404;28;20128;-86
2022/10/25 06:25:20;;;;;;;8.45;1.70;;;;;;;12.63;100.00;100010.38;5018421;28;19913;-85
2022/10/25 06:27:45;;;;;;;7.68;1.75;;;;;;;12.65;100.00;100016.28;5017271;28;20040;-85
2022/10/25 06:30:11;;;;;;;3.97;1.27;;;;;;;12.65;100.00;100016.28;5035651;28;20474;-86
2022/10/25 06:32:37;;;;;;;4.90;1.20;;;;;;;12.67;100.00;100024.91;5017350;28;20269;-86
2022/10/25 06:35:04;;;;;;;4.85;1.15;;;;;;;12.63;100.00;100024.03;5035090;28;20037;-85
2022/10/25 06:37:29;;;;;;;4.13;1.48;;;;;;;12.64;100.00;100022.88;5035388;28;20079;-85
2022/10/25 06:39:56;;;;;;;3.20;1.23;;;;;;;12.65;100.00;100019.00;5035373;28;20355;-85
2022/10/25 06:42:21;;;;;;;5.10;1.17;;;;;;;12.68;100.00;100012.03;5017631;28;20366;-85
2022/10/25 06:44:50;;;;;;;5.00;1.30;;;;;;;12.67;100.00;100018.66;5017325;28;20049;-85
2022/10/25 06:47:15;;;;;;;3.42;1.33;;;;;;;12.71;100.00;100023.06;5017609;28;20734;-84
2022/10/25 06:49:40;;;;;;;5.83;1.20;;;;;;;12.64;100.00;100022.88;5034991;28;20021;-85
2022/10/25 06:52:05;;;;;;;8.60;2.33;;;;;;;12.62;100.00;100028.69;5034425;28;20268;-83
2022/10/25 06:54:31;;;;;;;;;;;;;;;12.62;100.00;100033.38;5016850;28;20065;-84
2022/10/25 06:56:56;;;;;;;3.07;1.00;;;;;;;12.66;100.00;100039.72;5033737;28;19916;-86
2022/10/25 06:59:22;;;;;;;10.02;1.63;;;;;;;12.70;100.00;100048.00;5016410;28;20261;-86
2022/10/25 07:01:48;;;;;;;;;;;;;;;12.70;100.00;100050.72;5016593;28;20518;-86
2022/10/25 07:04:14;;;;;;;6.75;1.40;;;;;;;12.67;100.00;100057.69;5034172;28;19948;-85
2022/10/25 07:06:40;;;;;;;2.80;1.10;;;;;;;12.69;100.00;100060.84;5034415;28;20029;-84
2022/10/25 07:09:11;;;;;;;4.82;1.48;;;;;;;12.72;100.00;100073.03;5016074;28;20021;-84
2022/10/25 07:11:37;;;;;;;5.00;1.30;;;;;;;12.75;100.00;100064.13;5000347;28;20088;-84
2022/10/25 07:14:03;;;;;;;4.88;1.50;;;;;;;12.75;100.00;100059.44;5034121;28;20033;-84
2022/10/25 07:16:29;;;;;;;5.28;1.15;;;;;;;12.70;100.00;100065.19;5034748;28;20032;-84
2022/10/25 07:19:01;;;;;;;4.57;1.13;;;;;;;12.75;100.00;100062.19;5035925;28;20029;-84
2022/10/25 07:21:27;;;;;;;4.13;1.42;;;;;;;12.74;100.00;100065.25;5018826;28;20026;-84
2022/10/25 07:23:53;;;;;;;4.25;1.20;;;;;;;12.76;100.00;100077.44;5019592;28;20470;-84
2022/10/25 07:26:25;;;;;;;4.15;1.20;;;;;;;12.76;100.00;100077.44;5018010;28;20075;-85
2022/10/25 07:28:53;;;;;;;3.58;1.27;;;;;;;12.79;100.00;100081.44;5036388;28;20107;-84
2022/10/25 07:31:23;;;;;;;5.22;1.58;;;;;;;12.84;100.00;100081.16;5019029;28;20398;-84
2022/10/25 07:33:50;;;;;;;5.22;1.45;;;;;;;12.88;100.00;100080.09;5037296;28;20075;-83
2022/10/25 07:36:15;;;;;;;5.57;1.45;;;;;;;12.90;100.00;100088.75;5035187;28;20145;-83
2022/10/25 07:38:41;;;;;;;4.70;1.15;;;;;;;12.89;100.00;100098.09;5034810;28;20053;-84
2022/10/25 07:41:07;;;;;;;4.32;1.27;;;;;;;12.91;100.00;100090.31;5033723;28;20041;-85
2022/10/25 07:43:33;;;;;;;5.53;1.75;;;;;;;12.92;100.00;100091.91;5033591;28;20436;-83
2022/10/25 07:45:58;;;;;;;5.18;1.77;;;;;;;12.89;100.00;100087.16;5034313;28;20497;-84
2022/10/25 07:48:23;;;;;;;4.47;1.30;;;;;;;12.88;100.00;100085.56;5033336;28;20140;-83
2022/10/25 07:50:49;;;;;;;;;;;;;;;12.91;100.00;100082.13;5033992;28;20033;-83
2022/10/25 07:53:15;;;;;;;4.03;1.52;;;;;;;12.95;100.00;100085.78;5015640;28;19910;-84
2022/10/25 07:55:40;;;;;;;;;;;;;;;12.95;100.00;100080.31;5034116;28;20033;-86
2022/10/25 07:58:09;;;;;;;4.40;1.30;;;;;;;12.94;100.00;100089.66;5015540;28;20428;-83
2022/10/25 08:00:35;;;;;;;3.30;1.30;;;;;;;13.02;100.00;100095.28;5033741;28;20264;-83
2022/10/25 08:03:01;;;;;;;;;;;;;;;13.10;99.93;100097.03;5015520;28;20060;-84
2022/10/25 08:05:28;;;;;;;6.60;1.77;;;;;;;13.15;99.43;100085.88;5016166;28;19963;-83
2022/10/25 08:07:53;;;;;;;6.53;1.90;;;;;;;13.18;99.02;100082.44;5033193;28;20126;-81
2022/10/25 08:10:20;;;;;;;3.15;1.08;;;;;;;13.23;98.26;100090.38;5015241;28;20482;-82
2022/10/25 08:12:49;;;;;;;4.55;1.33;;;;;;;13.25;98.49;100093.56;5015516;28;20026;-84
2022/10/25 08:15:16;;;;;;;3.10;1.08;;;;;;;13.29;98.08;100099.13;5015410;28;20025;-82
2022/10/25 08:17:42;;;;;;;5.60;1.50;;;;;;;13.31;97.82;100097.63;5032802;28;20163;-83
2022/10/25 08:20:07;;;;;;;5.40;1.42;;;;;;;13.47;96.98;100108.56;5033161;28;20471;-81
2022/10/25 08:22:33;;;;;;;5.47;1.10;;;;;;;13.45;97.00;100100.72;5014455;28;20371;-82
2022/10/25 08:24:59;;;;;;;9.30;1.35;;;;;;;13.44;97.15;100109.28;5033142;28;20132;-80
2022/10/25 08:27:24;;;;;;;3.72;1.65;;;;;;;13.42;97.17;100108.81;5032116;28;20057;-79
2022/10/25 08:29:50;;;;;;;;;;;;;;;13.38;96.98;100108.72;5015515;28;20052;-78
2022/10/25 08:32:15;;;;;;;4.00;1.35;;;;;;;13.31;96.94;100107.78;5032856;28;19924;-80
2022/10/25 08:34:40;;;;;;;3.55;1.00;;;;;;;13.33;97.50;100106.28;5014550;28;20561;-79
2022/10/25 08:37:06;;;;;;;;;;;;;;;13.34;96.93;100104.31;5032637;28;20445;-79
2022/10/25 08:39:31;;;;;;;3.07;1.20;;;;;;;13.40;97.23;100105.63;5014436;28;19921;-78
2022/10/25 08:42:02;;;;;;;5.00;1.60;;;;;;;13.45;96.89;100114.38;5014352;28;20280;-78
2022/10/25 08:44:51;;;;;;;4.40;1.55;;;;;;;13.54;96.88;100117.72;5014463;28;20264;-78
2022/10/25 08:47:25;;;;;;;10.23;1.70;;;;;;;13.60;96.92;100120.19;5031968;28;20091;-78
2022/10/25 08:50:11;;;;;;;4.00;1.25;;;;;;;13.71;95.96;100121.22;5032066;28;20033;-77
2022/10/25 08:52:44;;;;;;;5.35;1.30;;;;;;;13.72;94.98;100117.34;5031942;28;20079;-78
2022/10/25 08:55:28;;;;;;;3.85;1.20;;;;;;;13.62;95.04;100126.13;5014296;28;20132;-78
2022/10/25 08:57:54;;;;;;;4.15;1.33;;;;;;;13.60;95.50;100122.91;5036065;28;20091;-78
2022/10/25 09:00:24;;;;;;;3.75;1.75;;;;;;;13.63;95.38;100124.97;5038028;28;20044;-77
2022/10/25 09:02:59;;;;;;;7.68;1.98;;;;;;;13.65;95.44;100133.59;5036699;28;20065;-77
2022/10/25 09:05:55;;;;;;;3.92;0.90;;;;;;;13.60;95.24;100131.91;5036237;28;20036;-78
2022/10/25 09:08:25;;;;;;;5.25;1.48;;;;;;;13.66;95.23;100129.72;5036075;28;20033;-78
2022/10/25 09:11:21;;;;;;;4.32;0.80;;;;;;;13.73;94.33;100144.34;5018454;28;20048;-77
2022/10/25 09:14:03;;;;;;;4.63;1.10;;;;;;;13.81;94.43;100148.84;5035499;28;20529;-77
2022/10/25 09:16:50;;;;;;;6.50;1.52;;;;;;;13.84;93.91;100147.34;5018287;28;20411;-77
2022/10/25 09:19:34;;;;;;;5.23;1.27;;;;;;;13.84;93.88;100136.41;5035805;28;20312;-77
2022/10/25 09:22:03;;;;;;;3.38;0.98;;;;;;;13.86;93.83;100142.31;5035793;28;20099;-77
2022/10/25 09:24:46;;;;;;;5.63;1.20;;;;;;;13.86;94.26;100145.06;5018164;28;20029;-77
2022/10/25 09:27:33;;;;;;;5.07;1.42;;;;;;;13.84;93.68;100147.34;5018274;28;20041;-78
2022/10/25 09:30:07;;;;;;;;;;;;;;;13.88;93.27;100153.69;5036326;28;20367;-77
2022/10/25 09:32:49;;;;;;;5.63;1.20;;;;;;;13.83;92.86;100162.19;5035979;28;19916;-77
2022/10/25 09:35:31;;;;;;;2.60;0.70;;;;;;;13.86;93.23;100153.25;5017903;28;20064;-77
2022/10/25 09:38:00;;;;;;;4.85;1.10;;;;;;;13.83;92.68;100151.25;5034952;28;20033;-77
2022/10/25 09:40:34;;;;;;;3.30;1.13;;;;;;;13.88;92.51;100159.16;5017564;28;20038;-77
2022/10/25 09:43:05;;;;;;;3.33;0.90;;;;;;;13.89;92.14;100154.50;5035894;28;20029;-77
2022/10/25 09:45:46;;;;;;;3.30;0.90;;;;;;;13.94;92.59;100163.25;5035459;28;20025;-77
2022/10/25 09:48:29;;;;;;;4.18;1.38;;;;;;;14.02;92.43;100162.25;5035239;28;20052;-77
2022/10/25 09:51:09;;;;;;;4.75;1.92;;;;;;;13.97;91.48;100162.53;5017780;28;20030;-78
2022/10/25 09:53:39;;;;;;;3.88;1.00;;;;;;;13.94;90.89;100168.72;5035238;28;20048;-77
2022/10/25 09:56:05;;;;;;;4.97;1.38;;;;;;;13.96;91.27;100171.09;5020313;28;20072;-78
2022/10/25 09:58:34;;;;;;;3.95;1.23;;;;;;;14.00;91.53;100170.03;5035388;28;20025;-78
2022/10/25 10:01:04;;;;;;;4.80;1.10;;;;;;;14.08;91.60;100177.22;5017526;28;20365;-78
2022/10/25 10:03:36;;;;;;;7.93;1.67;;;;;;;14.13;91.13;100181.66;5035399;28;20040;-78
2022/10/25 10:06:24;;;;;;;2.97;0.95;;;;;;;14.25;90.86;100184.25;5035277;28;20033;-78
2022/10/25 10:08:58;;;;;;;4.30;1.13;;;;;;;14.18;90.36;100184.13;5034132;28;20095;-77
2022/10/25 10:11:24;;;;;;;3.10;0.90;;;;;;;14.26;90.13;100188.59;5034334;28;20488;-78
2022/10/25 10:14:08;;;;;;;3.33;1.13;;;;;;;14.24;90.93;100192.84;5035588;28;20052;-78
2022/10/25 10:16:42;;;;;;;5.20;1.77;;;;;;;14.26;90.34;100196.00;5017439;28;20033;-77
2022/10/25 10:19:20;;;;;;;2.30;0.80;;;;;;;14.18;90.58;100203.28;5017062;28;20037;-77
2022/10/25 10:21:52;;;;;;;3.22;0.85;;;;;;;14.21;90.75;100194.34;5034956;28;20021;-78
2022/10/25 10:24:36;;;;;;;9.15;1.58;;;;;;;14.21;90.65;100199.03;5034948;28;20471;-79
2022/10/25 10:27:19;;;;;;;4.88;1.23;;;;;;;14.11;90.96;100198.44;5017437;28;20029;-79
2022/10/25 10:30:06;;;;;;;3.78;1.13;;;;;;;14.01;91.43;100201.72;5034822;28;20550;-78
2022/10/25 10:32:38;;;;;;;3.58;1.08;;;;;;;14.01;91.53;100204.47;5033397;28;20021;-77
2022/10/25 10:35:26;;;;;;;5.13;1.58;;;;;;;14.01;91.14;100203.66;5016534;28;20037;-77
2022/10/25 10:37:51;;;;;;;9.95;1.30;;;;;;;14.02;90.93;100208.78;5034659;28;20031;-76
2022/10/25 10:40:16;;;;;;;5.07;1.85;;;;;;;14.12;90.46;100207.44;5016534;28;20132;-76
2022/10/25 10:42:42;;;;;;;2.50;0.90;;;;;;;14.17;90.43;100203.63;5034653;28;20036;-76
2022/10/25 10:45:07;;;;;;;;;;;;;;;14.23;89.93;100213.16;5035189;28;20109;-76
2022/10/25 10:47:48;;;;;;;4.20;1.20;;;;;;;14.28;90.02;100210.16;5034652;28;19916;-76
2022/10/25 10:50:19;;;;;;;2.83;1.00;;;;;;;14.36;88.45;100206.41;5034726;28;20284;-77
2022/10/25 10:52:46;;;;;;;2.80;1.23;;;;;;;14.31;88.63;100206.72;5034364;28;20021;-77
2022/10/25 10:55:50;;;;;;;5.25;1.52;;;;;;;14.28;88.00;100210.97;5033998;28;20136;-77
2022/10/25 10:58:18;;;;;;;5.82;1.30;;;;;;;14.32;87.92;100211.81;5016280;28;20033;-77
2022/10/25 11:00:52;;;;;;;3.10;0.98;;;;;;;14.30;87.55;100202.38;5016637;28;20025;-77
2022/10/25 11:03:39;;;;;;;5.50;0.90;;;;;;;14.24;87.20;100214.75;5016375;28;20055;-77
2022/10/25 11:06:06;;;;;;;;;;;;;;;14.25;87.27;100211.66;5034538;28;20047;-77
2022/10/25 11:08:33;;;;;;;2.80;1.23;;;;;;;14.33;86.93;100207.94;5016369;28;19913;-77
2022/10/25 11:11:20;;;;;;;4.00;1.00;;;;;;;14.53;86.35;100206.03;5034154;28;20025;-76
2022/10/25 11:13:57;;;;;;;3.55;0.90;;;;;;;14.69;85.46;100206.78;5034016;28;20053;-77
2022/10/25 11:16:34;;;;;;;;;;;;;;;14.89;84.93;100213.06;5034381;28;20022;-77
2022/10/25 11:19:12;;;;;;;4.60;0.90;;;;;;;14.89;84.09;100212.25;5015525;28;20020;-77
2022/10/25 11:22:15;;;;;;;4.88;1.13;;;;;;;14.92;84.24;100208.78;5033892;28;20029;-77
2022/10/25 11:25:15;;;;;;;2.65;1.20;;;;;;;14.88;84.35;100210.66;5016248;28;20025;-77
2022/10/25 11:28:06;;;;;;;7.65;1.48;;;;;;;14.93;84.32;100211.16;5034293;28;20053;-78
2022/10/25 11:30:57;;;;;;;6.38;1.42;;;;;;;14.96;82.22;100198.72;5033980;28;20021;-78
2022/10/25 11:33:37;;;;;;;3.15;1.00;;;;;;;15.02;81.54;100209.00;5022796;28;20065;-77
2022/10/25 11:36:10;;;;;;;3.40;1.27;;;;;;;15.11;81.41;100208.78;5033841;28;20069;-78
2022/10/25 11:39:00;;;;;;;2.45;0.90;;;;;;;15.15;80.29;100215.13;5033480;28;20510;-78
2022/10/25 11:41:33;;;;;;;2.42;0.90;;;;;;;15.05;80.24;100207.50;5015429;28;20137;-77
2022/10/25 11:44:29;;;;;;;2.58;0.98;;;;;;;15.08;80.59;100214.97;5015705;28;20037;-77
2022/10/25 11:47:16;;;;;;;2.65;0.77;;;;;;;15.03;80.37;100212.53;5033398;28;20078;-78